Time;durP1;ratioP1;P1;durP2;ratioP2;P2;SDS_P1;SDS_P2;PMS_P1;PMS_P2;Temp;Humidity;BMP_temperature;BMP_pressure;BME280_temperature;BME280_humidity;BME280_pressure;Samples;Min_cycle;Max_cycle;Signal;HPM_P1;HPM_P2
2023/12/02 00:00:45;;;;;;;;;;;1.10;99.90;;;;;;2617007;39;20345;-71
2023/12/02 00:03:15;;;;;;;;;;;1.00;99.90;;;;;;2615500;54;20435;-71
2023/12/02 00:05:45;;;;;;;;;;;1.00;99.90;;;;;;2615724;54;19969;-71
2023/12/02 00:08:14;;;;;;;;;;;0.80;99.90;;;;;;2618485;54;19959;-73
2023/12/02 00:10:47;;;;;;;;;;;0.70;99.90;;;;;;2616450;47;19947;-73
2023/12/02 00:13:16;;;;;;;;;;;0.60;99.90;;;;;;2616691;54;19958;-72
2023/12/02 00:15:46;;;;;;;;;;;0.60;99.90;;;;;;2615981;54;19973;-73
2023/12/02 00:18:16;;;;;;;;;;;0.60;99.90;;;;;;2616425;47;19951;-72
2023/12/02 00:20:45;;;;;;;;;;;0.50;99.90;;;;;;2615458;47;20066;-71
2023/12/02 00:23:15;;;;;;;;;;;0.40;99.90;;;;;;2616450;54;19953;-71
2023/12/02 00:25:47;;;;;;;;;;;0.30;99.90;;;;;;2616892;54;19946;-71
2023/12/02 00:28:17;;;;;;;;;;;0.30;99.90;;;;;;2616039;54;20576;-72
2023/12/02 00:30:47;;;;;;;;;;;0.30;99.90;;;;;;2617073;54;19993;-71
2023/12/02 00:33:16;;;;;;;;;;;0.40;99.90;;;;;;2615159;47;19947;-71
2023/12/02 00:35:46;;;;;;;;;;;0.30;99.90;;;;;;2616488;54;20449;-71
2023/12/02 00:38:16;;;;;;;;;;;0.30;99.90;;;;;;2616450;46;19966;-71
2023/12/02 00:40:48;;;;;;;;;;;0.40;99.90;;;;;;2615344;54;19954;-72
2023/12/02 00:43:18;;;;;;;;;;;0.30;99.90;;;;;;2616666;39;20350;-72
2023/12/02 00:45:48;;;;;;;;;;;0.40;99.90;;;;;;2618680;54;20001;-72
2023/12/02 00:48:17;;;;;;;;;;;0.30;99.90;;;;;;2617486;39;20447;-72
2023/12/02 00:50:47;;;;;;;;;;;0.30;99.90;;;;;;2618309;39;20352;-72
2023/12/02 00:53:17;;;;;;;;;;;0.30;99.90;;;;;;2616942;54;19958;-72
2023/12/02 00:55:49;;;;;;;;;;;0.20;99.90;;;;;;2615884;54;19957;-72
2023/12/02 00:58:19;;;;;;;;;;;0.20;99.90;;;;;;2615868;47;20468;-72
2023/12/02 01:01:00;;;;;;;;;;;0.30;99.90;;;;;;2601186;54;19957;-72
2023/12/02 01:03:29;;;;;;;;;;;0.30;99.90;;;;;;2615591;54;19951;-72
2023/12/02 01:05:59;;;;;;;;;;;0.30;99.90;;;;;;2614390;54;19954;-72
2023/12/02 01:08:29;;;;;;;;;;;0.30;99.90;;;;;;2616614;54;19975;-73
2023/12/02 01:11:01;;;;;;;;;;;0.30;99.90;;;;;;2617680;39;20380;-72
2023/12/02 01:13:31;;;;;;;;;;;0.40;99.90;;;;;;2622140;54;19949;-71
2023/12/02 01:16:01;;;;;;;;;;;0.30;99.90;;;;;;2622585;54;19991;-72
2023/12/02 01:18:30;;;;;;;;;;;0.30;99.90;;;;;;2623205;47;19974;-72
2023/12/02 01:21:00;;;;;;;;;;;0.30;99.90;;;;;;2622445;47;19946;-72
2023/12/02 01:23:30;;;;;;;;;;;0.30;99.90;;;;;;2624545;54;19947;-71
2023/12/02 01:26:02;;;;;;;;;;;0.30;99.90;;;;;;2623445;47;19947;-72
2023/12/02 01:28:32;;;;;;;;;;;0.20;99.90;;;;;;2624845;54;20429;-71
2023/12/02 01:31:01;;;;;;;;;;;0.10;99.90;;;;;;2620573;50;19966;-72
2023/12/02 01:33:31;;;;;;;;;;;0.10;99.90;;;;;;2616723;54;19954;-71
2023/12/02 01:36:01;;;;;;;;;;;0.10;99.90;;;;;;2616282;54;19939;-71
2023/12/02 01:38:30;;;;;;;;;;;0.00;99.90;;;;;;2616484;54;20057;-71
2023/12/02 01:41:03;;;;;;;;;;;-0.10;99.90;;;;;;2616547;54;19946;-71
2023/12/02 01:43:32;;;;;;;;;;;-0.10;99.90;;;;;;2616120;46;19953;-72
2023/12/02 01:46:02;;;;;;;;;;;-0.10;99.90;;;;;;2616114;54;19946;-72
2023/12/02 01:48:34;;;;;;;;;;;-0.20;99.90;;;;;;2615997;47;19950;-72
2023/12/02 01:51:05;;;;;;;;;;;-0.30;99.90;;;;;;2615946;47;20493;-72
2023/12/02 01:53:35;;;;;;;;;;;-0.20;99.90;;;;;;2615580;54;19950;-71
2023/12/02 01:56:07;;;;;;;;;;;-0.20;99.90;;;;;;2614502;54;19982;-71
2023/12/02 01:58:38;;;;;;;;;;;-0.20;99.90;;;;;;2616078;54;19939;-72
2023/12/02 02:01:08;;;;;;;;;;;-0.10;99.90;;;;;;2614230;54;19946;-72
2023/12/02 02:03:37;;;;;;;;;;;-0.10;99.90;;;;;;2616224;39;20330;-72
2023/12/02 02:06:07;;;;;;;;;;;-0.20;99.90;;;;;;2615748;54;19939;-72
2023/12/02 02:08:37;;;;;;;;;;;-0.20;99.90;;;;;;2616040;54;20026;-72
2023/12/02 02:11:09;;;;;;;;;;;-0.20;99.90;;;;;;2614340;54;19939;-70
2023/12/02 02:13:39;;;;;;;;;;;-0.20;99.90;;;;;;2616579;47;19939;-71
2023/12/02 02:16:09;;;;;;;;;;;-0.10;99.90;;;;;;2614016;54;20015;-71
2023/12/02 02:18:39;;;;;;;;;;;-0.10;99.90;;;;;;2615369;54;19969;-71
2023/12/02 02:21:09;;;;;;;;;;;0.00;99.90;;;;;;2615014;54;20074;-71
2023/12/02 02:23:41;;;;;;;;;;;0.00;99.90;;;;;;2617082;54;19954;-72
2023/12/02 02:26:11;;;;;;;;;;;-0.10;99.90;;;;;;2619140;47;20051;-71
2023/12/02 06:35:49;;;;;;;;;;;-0.20;99.90;;;;;;2609598;46;20278;-79
2023/12/02 06:38:19;;;;;;;;;;;-0.40;99.90;;;;;;2628609;46;19929;-79
2023/12/02 06:40:49;;;;;;;;;;;-0.30;99.90;;;;;;2628237;54;19950;-81
2023/12/02 06:43:19;;;;;;;;;;;-0.20;99.90;;;;;;2628188;47;19977;-72
2023/12/02 06:45:48;;;;;;;;;;;-0.10;99.90;;;;;;2617685;54;19952;-73
2023/12/02 06:48:18;;;;;;;;;;;-0.10;99.90;;;;;;2614372;54;20691;-71
2023/12/02 06:50:50;;;;;;;;;;;-0.10;99.90;;;;;;2615629;54;19935;-72
2023/12/02 06:53:20;;;;;;;;;;;-0.10;99.90;;;;;;2617448;54;19941;-72
2023/12/02 06:55:50;;;;;;;;;;;-0.10;99.90;;;;;;2616666;54;19965;-72
2023/12/02 06:58:19;;;;;;;;;;;-0.10;99.90;;;;;;2616015;54;19946;-71
2023/12/02 07:00:50;;;;;;;;;;;0.00;99.90;;;;;;2617925;54;19947;-71
2023/12/02 07:03:20;;;;;;;;;;;-0.10;99.90;;;;;;2618428;47;20030;-71
2023/12/02 07:05:52;;;;;;;;;;;-0.10;99.90;;;;;;2621640;47;20441;-71
2023/12/02 07:08:22;;;;;;;;;;;-0.20;99.90;;;;;;2618013;54;19946;-72
2023/12/02 07:10:52;;;;;;;;;;;-0.20;99.90;;;;;;2616259;47;19939;-71
2023/12/02 07:13:22;;;;;;;;;;;-0.20;99.90;;;;;;2618377;47;20450;-71
2023/12/02 07:15:51;;;;;;;;;;;-0.20;99.90;;;;;;2617649;47;19946;-71
2023/12/02 07:18:21;;;;;;;;;;;-0.10;99.90;;;;;;2619021;54;20061;-73
2023/12/02 07:20:53;;;;;;;;;;;-0.20;99.90;;;;;;2623126;39;20377;-72
2023/12/02 07:23:25;;;;;;;;;;;-0.30;99.90;;;;;;2624294;54;19950;-72
2023/12/02 07:25:55;;;;;;;;;;;-0.30;99.90;;;;;;2620900;47;19951;-72
2023/12/02 07:28:24;;;;;;;;;;;-0.30;99.90;;;;;;2618967;54;19960;-72
2023/12/02 07:30:55;;;;;;;;;;;-0.40;99.90;;;;;;2619001;54;20006;-73
2023/12/02 07:33:25;;;;;;;;;;;-0.40;99.90;;;;;;2620839;39;20352;-72
2023/12/02 07:35:57;;;;;;;;;;;-0.40;99.90;;;;;;2621405;54;20466;-73
2023/12/02 07:38:27;;;;;;;;;;;-0.50;99.90;;;;;;2617207;46;19946;-73
2023/12/02 07:40:56;;;;;;;;;;;-0.50;99.90;;;;;;2619831;54;19986;-73
2023/12/02 07:43:26;;;;;;;;;;;-0.50;99.90;;;;;;2620605;39;20344;-73
2023/12/02 07:45:56;;;;;;;;;;;-0.50;99.90;;;;;;2619490;39;20356;-75
2023/12/02 07:48:25;;;;;;;;;;;-0.50;99.90;;;;;;2613901;47;19961;-73
2023/12/02 07:50:58;;;;;;;;;;;-0.60;99.90;;;;;;2616893;47;19950;-71
2023/12/02 07:53:28;;;;;;;;;;;-0.60;99.90;;;;;;2612024;54;19956;-73
2023/12/02 07:56:01;;;;;;;;;;;-0.60;99.90;;;;;;2617624;47;19935;-73
2023/12/02 07:58:30;;;;;;;;;;;-0.70;99.90;;;;;;2620998;47;19942;-78
2023/12/02 08:01:00;;;;;;;;;;;-0.70;99.90;;;;;;2617268;46;19969;-73
2023/12/02 08:03:30;;;;;;;;;;;-0.60;99.90;;;;;;2616701;54;19954;-73
2023/12/02 08:06:02;;;;;;;;;;;-0.60;99.90;;;;;;2621723;54;19935;-76
2023/12/02 08:08:32;;;;;;;;;;;-0.60;99.90;;;;;;2618828;54;19953;-74
2023/12/02 08:11:03;;;;;;;;;;;-0.60;99.90;;;;;;2617843;46;19961;-74
2023/12/02 08:13:33;;;;;;;;;;;-0.50;99.90;;;;;;2616458;46;19947;-76
2023/12/02 08:16:03;;;;;;;;;;;-0.60;99.90;;;;;;2615424;47;19957;-74
2023/12/02 08:18:33;;;;;;;;;;;-0.50;99.90;;;;;;2615575;54;20456;-73
2023/12/02 08:21:06;;;;;;;;;;;-0.50;99.90;;;;;;2617336;54;20009;-74
2023/12/02 08:23:36;;;;;;;;;;;-0.50;99.90;;;;;;2616223;54;19962;-74
2023/12/02 08:26:06;;;;;;;;;;;-0.40;99.90;;;;;;2618375;47;19947;-73
2023/12/02 08:28:36;;;;;;;;;;;-0.40;99.90;;;;;;2616068;54;19955;-73
2023/12/02 08:31:06;;;;;;;;;;;-0.30;99.90;;;;;;2616504;47;19954;-74
2023/12/02 08:33:37;;;;;;;;;;;-0.30;99.90;;;;;;2615291;47;21399;-74
2023/12/02 08:36:10;;;;;;;;;;;-0.20;99.90;;;;;;2613307;47;20069;-74
2023/12/02 08:38:39;;;;;;;;;;;-0.10;99.90;;;;;;2615973;47;19938;-73
2023/12/02 08:41:09;;;;;;;;;;;-0.10;99.90;;;;;;2617424;47;19943;-73
2023/12/02 08:43:39;;;;;;;;;;;-0.10;99.90;;;;;;2616951;54;19953;-73
2023/12/02 08:46:14;;;;;;;;;;;0.00;99.90;;;;;;2616996;54;19954;-74
2023/12/02 08:48:44;;;;;;;;;;;0.00;99.90;;;;;;2617286;47;19958;-74
2023/12/02 08:51:16;;;;;;;;;;;-0.10;99.90;;;;;;2617377;47;19942;-73
2023/12/02 08:53:46;;;;;;;;;;;-0.10;99.90;;;;;;2617205;47;19950;-72
2023/12/02 08:56:16;;;;;;;;;;;-0.10;99.90;;;;;;2618661;47;19954;-75
2023/12/02 08:58:45;;;;;;;;;;;-0.20;99.90;;;;;;2621322;54;19947;-74
2023/12/02 09:01:15;;;;;;;;;;;-0.10;99.90;;;;;;2621808;47;19963;-74
2023/12/02 09:03:45;;;;;;;;;;;-0.10;99.90;;;;;;2618147;54;19945;-74
2023/12/02 09:06:18;;;;;;;;;;;0.50;99.90;;;;;;2618898;39;20389;-73
2023/12/02 09:08:47;;;;;;;;;;;0.10;99.90;;;;;;2619416;54;19941;-74
2023/12/02 09:11:17;;;;;;;;;;;0.20;99.90;;;;;;2619616;47;19947;-73
2023/12/02 09:13:49;;;;;;;;;;;0.20;99.90;;;;;;2621629;47;19942;-73
2023/12/02 09:16:21;;;;;;;;;;;0.20;99.90;;;;;;2624443;47;19927;-73
2023/12/02 09:18:51;;;;;;;;;;;0.20;99.90;;;;;;2625827;47;19987;-75
2023/12/02 09:21:36;;;;;;;;;;;0.20;99.90;;;;;;2623056;54;20041;-75
2023/12/02 09:24:30;;;;;;;;;;;0.20;99.90;;;;;;2625496;47;19962;-71
2023/12/02 09:26:59;;;;;;;;;;;0.20;99.90;;;;;;2620779;54;19957;-74
2023/12/02 09:29:33;;;;;;;;;;;0.30;99.90;;;;;;2619622;47;19938;-74
2023/12/02 09:32:09;;;;;;;;;;;0.30;99.90;;;;;;2617860;39;20113;-75
2023/12/02 09:34:52;;;;;;;;;;;0.30;99.90;;;;;;2618090;54;19946;-72
2023/12/02 09:37:33;;;;;;;;;;;0.20;99.90;;;;;;2618846;47;19950;-75
2023/12/02 09:40:25;;;;;;;;;;;0.30;99.90;;;;;;2618623;54;20034;-76
2023/12/02 09:42:57;;;;;;;;;;;0.30;99.90;;;;;;2618754;46;19962;-74
2023/12/02 09:45:31;;;;;;;;;;;0.20;99.90;;;;;;2618345;47;19935;-73
2023/12/02 09:48:04;;;;;;;;;;;0.20;99.90;;;;;;2619572;54;20029;-75
2023/12/02 09:50:35;;;;;;;;;;;0.20;99.90;;;;;;2620175;47;19954;-74
2023/12/02 09:53:10;;;;;;;;;;;0.20;99.90;;;;;;2619584;54;19939;-74
2023/12/02 09:55:45;;;;;;;;;;;0.20;99.90;;;;;;2617953;47;19956;-74
2023/12/02 09:58:21;;;;;;;;;;;0.10;99.90;;;;;;2617768;47;19971;-74
2023/12/02 10:00:53;;;;;;;;;;;0.10;99.90;;;;;;2618821;54;20010;-73
2023/12/02 10:03:34;;;;;;;;;;;0.00;99.90;;;;;;2617750;54;20041;-75
2023/12/02 10:06:07;;;;;;;;;;;0.00;99.90;;;;;;2620486;47;19946;-73
2023/12/02 10:08:43;;;;;;;;;;;0.10;99.90;;;;;;2620219;54;19949;-74
2023/12/02 10:11:17;;;;;;;;;;;0.00;99.90;;;;;;2619866;47;19947;-74
2023/12/02 10:13:53;;;;;;;;;;;0.10;99.90;;;;;;2619832;54;19962;-75
2023/12/02 10:16:26;;;;;;;;;;;0.20;99.90;;;;;;2620554;54;19953;-73
2023/12/02 10:18:58;;;;;;;;;;;0.20;99.90;;;;;;2620221;54;19950;-73
2023/12/02 10:21:30;;;;;;;;;;;0.20;99.90;;;;;;2620502;47;19939;-76
2023/12/02 10:24:04;;;;;;;;;;;0.10;99.90;;;;;;2618781;47;19997;-75
2023/12/02 10:26:43;;;;;;;;;;;0.10;99.90;;;;;;2620041;54;20048;-75
2023/12/02 10:29:17;;;;;;;;;;;0.10;99.90;;;;;;2618075;39;20345;-74
2023/12/02 10:31:51;;;;;;;;;;;0.20;99.90;;;;;;2621156;47;19947;-74
2023/12/02 10:34:24;;;;;;;;;;;0.20;99.90;;;;;;2619717;47;19946;-74
2023/12/02 10:36:55;;;;;;;;;;;0.20;99.90;;;;;;2618772;46;19938;-75
2023/12/02 10:39:29;;;;;;;;;;;0.20;99.90;;;;;;2618099;47;20437;-74
2023/12/02 10:42:03;;;;;;;;;;;0.20;99.90;;;;;;2617675;47;19943;-65
2023/12/02 10:44:34;;;;;;;;;;;0.10;99.90;;;;;;2614402;54;19953;-65
2023/12/02 10:47:05;;;;;;;;;;;0.30;99.90;;;;;;2616088;47;20442;-66
2023/12/02 10:49:36;;;;;;;;;;;0.40;99.90;;;;;;2615965;31;20474;-65
2023/12/02 10:52:07;;;;;;;;;;;0.40;99.90;;;;;;2616807;47;19968;-65
2023/12/02 10:54:42;;;;;;;;;;;0.60;99.90;;;;;;2616610;47;19946;-65
2023/12/02 10:57:14;;;;;;;;;;;0.80;99.90;;;;;;2616178;54;19951;-65
2023/12/02 10:59:48;;;;;;;;;;;0.90;99.90;;;;;;2616287;54;19950;-62
2023/12/02 11:02:28;;;;;;;;;;;0.80;99.90;;;;;;2617545;54;19950;-76
2023/12/02 11:05:05;;;;;;;;;;;0.90;99.90;;;;;;2618197;54;19943;-76
2023/12/02 11:07:36;;;;;;;;;;;0.90;99.90;;;;;;2615665;47;19943;-74
2023/12/02 11:10:09;;;;;;;;;;;1.00;99.90;;;;;;2615393;47;19957;-73
2023/12/02 11:12:43;;;;;;;;;;;1.00;99.90;;;;;;2616114;54;19945;-73
2023/12/02 11:15:15;;;;;;;;;;;1.00;99.90;;;;;;2618978;39;20392;-73
2023/12/02 11:17:57;;;;;;;;;;;1.00;99.90;;;;;;2616143;54;19939;-73
2023/12/02 11:20:28;;;;;;;;;;;1.00;99.90;;;;;;2617077;54;19993;-73
2023/12/02 11:23:11;;;;;;;;;;;0.80;99.90;;;;;;2617074;47;19947;-72
2023/12/02 11:25:48;;;;;;;;;;;0.80;99.90;;;;;;2615986;47;19947;-73
2023/12/02 11:28:24;;;;;;;;;;;0.70;99.90;;;;;;2616261;47;19957;-74
2023/12/02 11:31:01;;;;;;;;;;;0.60;99.90;;;;;;2618047;31;20426;-72
2023/12/02 11:33:38;;;;;;;;;;;0.60;99.90;;;;;;2615497;47;19953;-71
2023/12/02 11:36:15;;;;;;;;;;;0.50;99.90;;;;;;2616759;54;19935;-74
2023/12/02 11:38:50;;;;;;;;;;;0.50;99.90;;;;;;2622405;54;19946;-74
2023/12/02 11:41:23;;;;;;;;;;;0.40;99.90;;;;;;2620898;47;19972;-72
2023/12/02 11:44:05;;;;;;;;;;;0.40;99.90;;;;;;2615694;47;19950;-72
2023/12/02 11:46:43;;;;;;;;;;;0.30;99.90;;;;;;2616337;47;20449;-72
2023/12/02 11:49:17;;;;;;;;;;;0.10;99.90;;;;;;2613470;54;19977;-72
2023/12/02 11:51:55;;;;;;;;;;;0.30;99.90;;;;;;2616483;47;20110;-72
2023/12/02 11:54:30;;;;;;;;;;;0.10;99.90;;;;;;2616203;54;19939;-72
2023/12/02 11:57:09;;;;;;;;;;;0.10;99.90;;;;;;2616761;47;19956;-73
2023/12/02 11:59:46;;;;;;;;;;;0.10;99.90;;;;;;2615751;39;20348;-73
2023/12/02 12:02:23;;;;;;;;;;;0.10;99.90;;;;;;2615040;54;19935;-73
2023/12/02 12:05:02;;;;;;;;;;;-0.30;99.90;;;;;;2616048;54;19968;-73
2023/12/02 12:07:41;;;;;;;;;;;0.00;99.90;;;;;;2616212;47;19938;-72
2023/12/02 12:10:15;;;;;;;;;;;0.10;99.90;;;;;;2616238;47;20030;-72
2023/12/02 12:12:47;;;;;;;;;;;0.00;99.90;;;;;;2615838;47;20457;-72
2023/12/02 12:15:20;;;;;;;;;;;0.00;99.90;;;;;;2615973;47;19947;-74
2023/12/02 12:17:50;;;;;;;;;;;0.10;99.90;;;;;;2614180;54;20476;-73
2023/12/02 12:20:20;;;;;;;;;;;0.10;99.90;;;;;;2615796;54;19962;-73
2023/12/02 12:22:50;;;;;;;;;;;0.10;99.90;;;;;;2623438;47;19989;-73
2023/12/02 12:25:19;;;;;;;;;;;0.20;99.90;;;;;;2623420;47;19946;-74
2023/12/02 12:27:49;;;;;;;;;;;0.30;99.90;;;;;;2621226;47;19946;-74
2023/12/02 12:30:21;;;;;;;;;;;0.40;99.90;;;;;;2621039;47;19946;-74
2023/12/02 12:32:51;;;;;;;;;;;0.40;99.90;;;;;;2618358;47;20054;-74
2023/12/02 12:35:21;;;;;;;;;;;0.50;99.90;;;;;;2614989;47;19947;-72
2023/12/02 12:37:51;;;;;;;;;;;0.70;99.90;;;;;;2615134;39;20037;-72
2023/12/02 12:40:21;;;;;;;;;;;0.60;99.90;;;;;;2615581;47;19942;-71
2023/12/02 12:42:51;;;;;;;;;;;0.70;99.90;;;;;;2614926;47;19949;-72
2023/12/02 12:45:24;;;;;;;;;;;0.70;99.90;;;;;;2614649;47;19955;-71
2023/12/02 12:47:59;;;;;;;;;;;0.60;99.90;;;;;;2615397;47;19972;-74
2023/12/02 12:50:31;;;;;;;;;;;0.50;99.90;;;;;;2614169;54;19938;-71
2023/12/02 12:53:04;;;;;;;;;;;0.50;99.90;;;;;;2616519;54;19957;-73
2023/12/02 12:55:38;;;;;;;;;;;0.50;99.90;;;;;;2618182;47;19950;-72
2023/12/02 12:58:09;;;;;;;;;;;0.40;99.90;;;;;;2618179;47;20529;-71
2023/12/02 13:00:42;;;;;;;;;;;0.50;99.90;;;;;;2619173;54;19947;-73
2023/12/02 13:03:18;;;;;;;;;;;0.50;99.90;;;;;;2620060;54;19982;-73
2023/12/02 13:05:53;;;;;;;;;;;0.50;99.90;;;;;;2618867;47;19946;-73
2023/12/02 13:08:27;;;;;;;;;;;0.70;99.90;;;;;;2618464;47;19943;-72
2023/12/02 13:10:58;;;;;;;;;;;0.70;99.90;;;;;;2616900;54;19939;-72
2023/12/02 13:13:28;;;;;;;;;;;0.70;99.90;;;;;;2617401;47;19943;-73
2023/12/02 13:16:02;;;;;;;;;;;0.70;99.90;;;;;;2617525;47;19946;-75
2023/12/02 13:18:35;;;;;;;;;;;0.80;99.90;;;;;;2617764;47;19966;-74
2023/12/02 13:21:05;;;;;;;;;;;0.70;99.90;;;;;;2618488;54;19945;-73
2023/12/02 13:23:36;;;;;;;;;;;0.70;99.90;;;;;;2616949;54;20438;-75
2023/12/02 13:26:06;;;;;;;;;;;0.60;99.90;;;;;;2617155;46;20054;-75
2023/12/02 13:28:37;;;;;;;;;;;0.70;99.90;;;;;;2619069;54;19946;-73
2023/12/02 13:31:11;;;;;;;;;;;0.70;99.90;;;;;;2624021;54;19934;-74
2023/12/02 13:33:44;;;;;;;;;;;0.70;99.90;;;;;;2620072;54;19953;-74
2023/12/02 13:36:15;;;;;;;;;;;0.70;99.90;;;;;;2618308;39;20352;-76
2023/12/02 13:38:52;;;;;;;;;;;0.70;99.90;;;;;;2618597;47;19948;-74
2023/12/02 13:41:29;;;;;;;;;;;0.70;99.90;;;;;;2617556;47;20406;-73
2023/12/02 13:44:01;;;;;;;;;;;0.70;99.90;;;;;;2620547;54;20057;-74
2023/12/02 13:46:35;;;;;;;;;;;0.70;99.90;;;;;;2621900;54;19999;-74
2023/12/02 13:49:07;;;;;;;;;;;0.80;99.90;;;;;;2623452;47;19998;-75
2023/12/02 13:51:40;;;;;;;;;;;0.80;99.90;;;;;;2620490;47;19938;-74
2023/12/02 13:54:14;;;;;;;;;;;0.70;99.90;;;;;;2618999;47;19946;-74
2023/12/02 13:56:50;;;;;;;;;;;1.00;99.90;;;;;;2618306;47;19954;-75
2023/12/02 13:59:23;;;;;;;;;;;0.60;99.90;;;;;;2618326;54;19947;-77
2023/12/02 14:02:04;;;;;;;;;;;0.80;99.90;;;;;;2616921;47;20002;-75
2023/12/02 14:04:45;;;;;;;;;;;0.70;99.90;;;;;;2617078;39;20448;-76
2023/12/02 14:07:19;;;;;;;;;;;0.70;99.90;;;;;;2616584;46;19953;-76
2023/12/02 14:09:49;;;;;;;;;;;1.30;99.90;;;;;;2615631;47;19949;-74
2023/12/02 14:12:27;;;;;;;;;;;0.80;99.90;;;;;;2618992;47;20077;-76
2023/12/02 14:15:12;;;;;;;;;;;0.80;99.90;;;;;;2616402;54;20442;-76
2023/12/02 14:17:51;;;;;;;;;;;0.80;99.90;;;;;;2617795;47;19971;-74
2023/12/02 14:20:30;;;;;;;;;;;0.80;99.90;;;;;;2615881;47;20005;-74
2023/12/02 14:23:16;;;;;;;;;;;0.80;99.90;;;;;;2617955;47;20042;-77
2023/12/02 14:25:53;;;;;;;;;;;0.80;99.90;;;;;;2615196;54;19951;-73
2023/12/02 14:28:33;;;;;;;;;;;0.80;99.90;;;;;;2597185;47;19949;-75
2023/12/02 14:31:15;;;;;;;;;;;0.80;99.90;;;;;;2600300;47;19947;-75
2023/12/02 14:33:57;;;;;;;;;;;0.80;99.90;;;;;;2599748;47;20058;-76
2023/12/02 14:36:35;;;;;;;;;;;0.80;99.90;;;;;;2602660;39;20945;-74
2023/12/02 14:39:14;;;;;;;;;;;0.80;99.90;;;;;;2599117;46;19997;-74
2023/12/02 14:41:49;;;;;;;;;;;0.80;99.90;;;;;;2599302;39;20331;-79
2023/12/02 14:44:26;;;;;;;;;;;0.90;99.90;;;;;;2599324;39;20322;-75
2023/12/02 14:46:57;;;;;;;;;;;0.80;99.90;;;;;;2598626;47;19957;-77
2023/12/02 14:49:32;;;;;;;;;;;-0.50;99.90;;;;;;2595084;46;20159;-78
2023/12/02 14:52:02;;;;;;;;;;;0.70;99.90;;;;;;2597189;54;20556;-78
2023/12/02 14:54:35;;;;;;;;;;;1.10;99.90;;;;;;2597017;47;20539;-78
2023/12/02 14:57:18;;;;;;;;;;;1.70;99.90;;;;;;2597117;47;19954;-76
2023/12/02 14:59:55;;;;;;;;;;;0.80;99.90;;;;;;2603539;47;19969;-76
2023/12/02 15:02:36;;;;;;;;;;;0.80;99.90;;;;;;2605066;47;19973;-75
2023/12/02 15:05:12;;;;;;;;;;;0.80;99.90;;;;;;2599640;31;20480;-77
2023/12/02 15:07:45;;;;;;;;;;;0.70;99.90;;;;;;2595717;47;19954;-77
2023/12/02 15:10:17;;;;;;;;;;;0.80;99.90;;;;;;2598251;47;21682;-78
2023/12/02 15:13:07;;;;;;;;;;;0.70;99.90;;;;;;2596714;47;20501;-77
2023/12/02 15:15:41;;;;;;;;;;;0.70;99.90;;;;;;2596259;54;19951;-73
2023/12/02 15:18:19;;;;;;;;;;;0.80;99.90;;;;;;2595139;54;20485;-75
2023/12/02 15:21:11;;;;;;;;;;;0.70;99.90;;;;;;2596493;39;20052;-74
2023/12/02 15:23:42;;;;;;;;;;;0.70;99.90;;;;;;2598006;54;19946;-76
2023/12/02 15:26:14;;;;;;;;;;;0.70;99.90;;;;;;2596007;47;19955;-78
2023/12/02 15:28:50;;;;;;;;;;;1.00;99.90;;;;;;2598339;54;19942;-74
2023/12/02 15:31:27;;;;;;;;;;;0.70;99.90;;;;;;2597842;47;19962;-77
2023/12/02 15:33:59;;;;;;;;;;;0.80;99.90;;;;;;2598982;54;19973;-77
2023/12/02 15:36:36;;;;;;;;;;;0.80;99.90;;;;;;2596573;47;20030;-77
2023/12/02 15:39:11;;;;;;;;;;;0.70;99.90;;;;;;2601109;47;19950;-79
2023/12/02 15:41:43;;;;;;;;;;;0.20;99.90;;;;;;2599054;54;19985;-79
2023/12/02 15:44:16;;;;;;;;;;;0.70;99.90;;;;;;2602065;54;20045;-76
2023/12/02 15:46:49;;;;;;;;;;;2.50;99.90;;;;;;2600593;54;20655;-76
2023/12/02 15:49:25;;;;;;;;;;;0.60;99.90;;;;;;2598685;47;19957;-77
2023/12/02 15:51:59;;;;;;;;;;;0.60;99.90;;;;;;2598375;54;19950;-74
2023/12/02 15:54:35;;;;;;;;;;;0.60;99.90;;;;;;2599174;47;19969;-76
2023/12/02 15:57:05;;;;;;;;;;;2.20;99.90;;;;;;2599853;39;20376;-75
2023/12/02 15:59:36;;;;;;;;;;;-0.80;99.90;;;;;;2599621;47;19950;-75
2023/12/02 16:02:09;;;;;;;;;;;1.60;99.90;;;;;;2599732;47;19947;-73
2023/12/02 16:04:39;;;;;;;;;;;0.50;99.90;;;;;;2598427;47;20579;-73
2023/12/02 16:07:16;;;;;;;;;;;0.50;99.90;;;;;;2599743;47;19957;-73
2023/12/02 16:09:49;;;;;;;;;;;0.50;99.90;;;;;;2601422;54;19950;-72
2023/12/02 16:12:20;;;;;;;;;;;0.50;99.90;;;;;;2599198;47;19957;-73
2023/12/02 16:14:50;;;;;;;;;;;0.90;99.90;;;;;;2601675;47;20042;-74
2023/12/02 16:17:22;;;;;;;;;;;0.60;99.90;;;;;;2600466;47;19951;-72
2023/12/02 16:19:53;;;;;;;;;;;1.60;99.90;;;;;;2599418;54;19957;-75
2023/12/02 16:22:26;;;;;;;;;;;0.60;99.90;;;;;;2600806;47;19962;-73
2023/12/02 16:24:57;;;;;;;;;;;0.50;99.90;;;;;;2600886;47;19950;-73
2023/12/02 16:27:28;;;;;;;;;;;0.50;99.90;;;;;;2600806;46;20002;-74
2023/12/02 16:29:59;;;;;;;;;;;0.50;99.90;;;;;;2606815;46;19954;-71
2023/12/02 16:32:30;;;;;;;;;;;2.30;99.90;;;;;;2607223;46;19954;-71
2023/12/02 16:35:02;;;;;;;;;;;0.40;99.90;;;;;;2607187;39;20939;-73
2023/12/02 16:37:41;;;;;;;;;;;0.50;99.90;;;;;;2603949;46;19951;-72
2023/12/02 16:40:13;;;;;;;;;;;0.60;99.90;;;;;;2599432;47;20026;-73
2023/12/02 16:42:44;;;;;;;;;;;0.40;99.90;;;;;;2603025;39;21069;-72
2023/12/02 16:45:17;;;;;;;;;;;0.40;99.90;;;;;;2611125;47;19989;-73
2023/12/02 16:47:52;;;;;;;;;;;0.50;99.90;;;;;;2624565;47;19986;-74
2023/12/02 16:50:30;;;;;;;;;;;0.50;99.90;;;;;;2624811;47;19947;-76
2023/12/02 16:53:05;;;;;;;;;;;0.50;99.90;;;;;;2625120;47;19947;-73
2023/12/02 16:55:39;;;;;;;;;;;1.40;99.90;;;;;;2622081;47;19990;-73
2023/12/02 16:58:13;;;;;;;;;;;1.30;99.90;;;;;;2618460;47;20478;-74
2023/12/02 17:00:45;;;;;;;;;;;0.60;99.90;;;;;;2618467;47;19998;-74
2023/12/02 17:03:34;;;;;;;;;;;0.50;99.90;;;;;;2615192;46;20019;-74
2023/12/02 17:06:12;;;;;;;;;;;0.60;99.90;;;;;;2617235;47;19946;-77
2023/12/02 17:08:46;;;;;;;;;;;0.50;99.90;;;;;;2617152;46;19938;-77
2023/12/02 17:11:17;;;;;;;;;;;0.50;99.90;;;;;;2616819;47;20473;-75
2023/12/02 17:13:49;;;;;;;;;;;0.40;99.90;;;;;;2616783;47;19949;-75
2023/12/02 17:16:34;;;;;;;;;;;0.50;99.90;;;;;;2615771;47;20510;-75
2023/12/02 17:19:09;;;;;;;;;;;0.30;99.90;;;;;;2615045;54;19985;-75
2023/12/02 17:21:50;;;;;;;;;;;0.50;99.90;;;;;;2617287;39;20345;-74
2023/12/02 17:24:25;;;;;;;;;;;0.50;99.90;;;;;;2616384;47;19953;-74
2023/12/02 17:26:56;;;;;;;;;;;0.50;99.90;;;;;;2615578;47;20042;-74
2023/12/02 17:29:27;;;;;;;;;;;0.50;99.90;;;;;;2610303;39;20474;-73
2023/12/02 17:32:01;;;;;;;;;;;0.50;99.90;;;;;;2595011;47;19958;-72
2023/12/02 17:34:31;;;;;;;;;;;0.40;99.90;;;;;;2597636;54;20033;-73
2023/12/02 17:37:02;;;;;;;;;;;0.40;99.90;;;;;;2597317;47;19954;-74
2023/12/02 17:39:35;;;;;;;;;;;0.50;99.90;;;;;;2598002;46;20480;-76
2023/12/02 17:42:07;;;;;;;;;;;0.50;99.90;;;;;;2597960;47;19955;-72
2023/12/02 17:44:37;;;;;;;;;;;0.40;99.90;;;;;;2599667;47;20460;-74
2023/12/02 17:47:08;;;;;;;;;;;0.50;99.90;;;;;;2598333;47;19957;-75
2023/12/02 17:49:38;;;;;;;;;;;0.50;99.90;;;;;;2598569;47;20017;-74
2023/12/02 17:52:09;;;;;;;;;;;0.50;99.90;;;;;;2597708;47;21274;-74
2023/12/02 17:54:44;;;;;;;;;;;0.50;99.90;;;;;;2599185;54;19955;-74
2023/12/02 17:57:15;;;;;;;;;;;1.30;99.90;;;;;;2602162;47;19995;-73
2023/12/02 17:59:45;;;;;;;;;;;0.60;99.90;;;;;;2606421;54;19946;-71
2023/12/02 18:02:19;;;;;;;;;;;0.50;99.90;;;;;;2605651;46;19962;-72
2023/12/02 18:04:50;;;;;;;;;;;0.60;99.90;;;;;;2599563;47;19958;-72
2023/12/02 18:07:24;;;;;;;;;;;0.60;99.90;;;;;;2601593;47;20953;-73
2023/12/02 18:10:01;;;;;;;;;;;0.50;99.90;;;;;;2599368;47;19955;-71
2023/12/02 18:12:31;;;;;;;;;;;0.60;99.90;;;;;;2599773;54;19957;-72
2023/12/02 18:15:02;;;;;;;;;;;0.50;99.90;;;;;;2599106;47;19958;-73
2023/12/02 18:17:33;;;;;;;;;;;0.50;99.90;;;;;;2599793;47;19986;-73
2023/12/02 18:20:08;;;;;;;;;;;0.60;99.90;;;;;;2597752;54;19950;-74
2023/12/02 18:22:39;;;;;;;;;;;0.60;99.90;;;;;;2598827;47;19961;-73
2023/12/02 18:25:13;;;;;;;;;;;0.60;99.90;;;;;;2598369;47;19951;-73
2023/12/02 18:27:44;;;;;;;;;;;0.60;99.90;;;;;;2600277;47;20070;-71
2023/12/02 18:30:15;;;;;;;;;;;0.60;99.90;;;;;;2597730;46;19954;-71
2023/12/02 18:32:45;;;;;;;;;;;0.60;99.90;;;;;;2598231;47;19983;-71
2023/12/02 18:37:44;;;;;;;;;;;0.60;99.90;;;;;;2598370;54;20442;-70
2023/12/02 18:40:19;;;;;;;;;;;0.70;99.90;;;;;;2609450;47;19946;-73
2023/12/02 18:42:50;;;;;;;;;;;0.70;99.90;;;;;;2615013;47;19999;-72
2023/12/02 18:45:22;;;;;;;;;;;0.70;99.90;;;;;;2615121;54;19946;-73
2023/12/02 18:47:56;;;;;;;;;;;1.20;99.90;;;;;;2616404;47;19946;-75
2023/12/02 18:50:28;;;;;;;;;;;-0.40;99.90;;;;;;2615457;46;19957;-74
2023/12/02 18:52:58;;;;;;;;;;;0.60;99.90;;;;;;2615936;46;20639;-72
2023/12/02 18:55:34;;;;;;;;;;;0.90;99.90;;;;;;2616229;39;20351;-74
2023/12/02 18:58:08;;;;;;;;;;;0.70;99.90;;;;;;2615541;47;19947;-72
2023/12/02 19:00:41;;;;;;;;;;;0.80;99.90;;;;;;2616221;39;20397;-73
2023/12/02 19:03:15;;;;;;;;;;;0.80;99.90;;;;;;2613703;47;19947;-73
2023/12/02 19:05:50;;;;;;;;;;;0.70;99.90;;;;;;2616014;47;19942;-74
2023/12/02 19:08:21;;;;;;;;;;;2.00;99.90;;;;;;2616556;47;19987;-73